Time;durP1;ratioP1;P1;durP2;ratioP2;P2;SDS_P1;SDS_P2;PMS_P1;PMS_P2;Temp;Humidity;BMP_temperature;BMP_pressure;BME280_temperature;BME280_humidity;BME280_pressure;Samples;Min_cycle;Max_cycle;Signal;HPM_P1;HPM_P2
2022/09/12 00:02:21;;;;;;;;;;;14.10;99.90;;;;;;4968699;28;19918;-81
2022/09/12 00:04:47;;;;;;;;;;;14.10;99.90;;;;;;4970144;28;19938;-81
2022/09/12 00:07:12;;;;;;;;;;;14.10;99.90;;;;;;4961285;28;19907;-84
2022/09/12 00:09:38;;;;;;;;;;;14.10;99.90;;;;;;4978335;28;19906;-86
2022/09/12 00:12:04;;;;;;;;;;;14.00;99.90;;;;;;4978755;28;19910;-85
2022/09/12 00:14:30;;;;;;;;;;;14.00;99.90;;;;;;4939671;28;19938;-83
2022/09/12 00:16:59;;;;;;;;;;;14.00;99.90;;;;;;4971770;28;19907;-82
2022/09/12 00:19:25;;;;;;;;;;;14.00;99.90;;;;;;4960393;28;19973;-82
2022/09/12 00:21:51;;;;;;;;;;;13.90;99.90;;;;;;4958922;28;19920;-83
2022/09/12 00:24:16;;;;;;;;;;;13.90;99.90;;;;;;4959087;29;19911;-83
2022/09/12 00:26:42;;;;;;;;;;;13.90;99.90;;;;;;4958851;28;19906;-85
2022/09/12 00:29:08;;;;;;;;;;;13.90;99.90;;;;;;4957331;29;19906;-84
2022/09/12 00:31:34;;;;;;;;;;;16.10;99.90;;;;;;4947938;29;19914;-81
2022/09/12 00:34:00;;;;;;;;;;;13.90;99.90;;;;;;4944975;29;19907;-82
2022/09/12 00:36:25;;;;;;;;;;;13.90;99.90;;;;;;4953035;28;20364;-85
2022/09/12 00:38:53;;;;;;;;;;;13.80;99.90;;;;;;4945050;29;20300;-82
2022/09/12 00:41:26;;;;;;;;;;;13.80;99.90;;;;;;4941755;28;19911;-83
2022/09/12 00:43:53;;;;;;;;;;;13.80;99.90;;;;;;4948775;28;19945;-82
2022/09/12 00:46:31;;;;;;;;;;;13.80;99.90;;;;;;4976386;28;19918;-83
2022/09/12 00:49:00;;;;;;;;;;;13.80;99.90;;;;;;4973094;28;19953;-84
2022/09/12 00:51:29;;;;;;;;;;;13.80;99.90;;;;;;4960813;28;20025;-83
2022/09/12 00:53:55;;;;;;;;;;;13.80;99.90;;;;;;4960753;28;20327;-83
2022/09/12 00:56:22;;;;;;;;;;;13.80;99.90;;;;;;4960684;28;19929;-81
2022/09/12 00:58:51;;;;;;;;;;;13.80;99.90;;;;;;4960672;29;19981;-81
2022/09/12 01:01:17;;;;;;;;;;;13.80;99.90;;;;;;4944606;29;20037;-80
2022/09/12 01:03:42;;;;;;;;;;;13.80;99.90;;;;;;4961195;29;20269;-81
2022/09/12 01:06:14;;;;;;;;;;;13.80;99.90;;;;;;4960917;28;19962;-85
2022/09/12 01:08:41;;;;;;;;;;;13.80;99.90;;;;;;4945806;29;19906;-86
2022/09/12 01:11:08;;;;;;;;;;;13.80;99.90;;;;;;4928683;29;20245;-82
2022/09/12 01:13:34;;;;;;;;;;;13.80;99.90;;;;;;4947549;29;19914;-81
2022/09/12 01:16:02;;;;;;;;;;;13.70;99.90;;;;;;4938813;29;20335;-81
2022/09/12 01:18:46;;;;;;;;;;;13.70;99.90;;;;;;4936960;29;19929;-82
2022/09/12 01:21:31;;;;;;;;;;;13.70;99.90;;;;;;4949926;29;19918;-84
2022/09/12 01:24:14;;;;;;;;;;;13.70;99.90;;;;;;4951497;29;19915;-81
2022/09/12 01:26:56;;;;;;;;;;;13.60;99.90;;;;;;4947779;29;19911;-83
2022/09/12 01:29:34;;;;;;;;;;;13.60;99.90;;;;;;4975015;28;19910;-83
2022/09/12 01:32:24;;;;;;;;;;;13.60;99.90;;;;;;4986036;28;19910;-82
2022/09/12 01:35:03;;;;;;;;;;;13.60;99.90;;;;;;4972588;28;19910;-84
2022/09/12 01:37:33;;;;;;;;;;;13.60;99.90;;;;;;4987380;28;19933;-84
2022/09/12 01:40:20;;;;;;;;;;;15.50;99.90;;;;;;4957663;28;20360;-84
2022/09/12 01:43:02;;;;;;;;;;;13.60;99.90;;;;;;4952509;28;20010;-82
2022/09/12 01:45:31;;;;;;;;;;;13.60;99.90;;;;;;4982555;28;19910;-84
2022/09/12 01:48:09;;;;;;;;;;;13.60;99.90;;;;;;4975552;28;19974;-83
2022/09/12 01:50:39;;;;;;;;;;;14.50;99.90;;;;;;4962642;29;19961;-83
2022/09/12 01:53:07;;;;;;;;;;;13.50;99.90;;;;;;4964554;28;19906;-83
2022/09/12 01:55:45;;;;;;;;;;;13.50;99.90;;;;;;4968711;28;20020;-86
2022/09/12 01:58:10;;;;;;;;;;;13.50;99.90;;;;;;4958571;28;19958;-86
2022/09/12 02:00:41;;;;;;;;;;;13.40;99.90;;;;;;4945147;28;19981;-84
2022/09/12 02:03:09;;;;;;;;;;;13.50;99.90;;;;;;4960474;29;19911;-83
2022/09/12 02:05:38;;;;;;;;;;;13.50;99.90;;;;;;4948277;29;20041;-83
2022/09/12 02:08:10;;;;;;;;;;;13.50;99.90;;;;;;4943604;29;19966;-84
2022/09/12 02:10:56;;;;;;;;;;;13.40;99.90;;;;;;4972850;28;19910;-86
2022/09/12 02:13:24;;;;;;;;;;;13.40;99.90;;;;;;4968881;28;19906;-85
2022/09/12 02:15:57;;;;;;;;;;;13.40;99.90;;;;;;4960981;28;19906;-84
2022/09/12 02:18:26;;;;;;;;;;;15.60;99.90;;;;;;4979191;28;19910;-85
2022/09/12 02:20:52;;;;;;;;;;;13.40;99.90;;;;;;4967227;28;19917;-84
2022/09/12 02:23:20;;;;;;;;;;;13.40;99.90;;;;;;4961090;28;19950;-83
2022/09/12 02:25:47;;;;;;;;;;;13.40;99.90;;;;;;4961437;28;20292;-84
2022/09/12 02:28:14;;;;;;;;;;;13.40;99.90;;;;;;4959151;28;19930;-86
2022/09/12 02:30:44;;;;;;;;;;;13.30;99.90;;;;;;4964239;28;20287;-85
2022/09/12 02:33:17;;;;;;;;;;;13.30;99.90;;;;;;4965835;28;20397;-82
2022/09/12 02:35:48;;;;;;;;;;;13.40;99.90;;;;;;4980680;28;19942;-85
2022/09/12 02:38:29;;;;;;;;;;;13.30;99.90;;;;;;4978775;28;19906;-85
2022/09/12 02:40:55;;;;;;;;;;;13.30;99.90;;;;;;4979457;28;20384;-84
2022/09/12 02:43:20;;;;;;;;;;;13.40;99.90;;;;;;4978846;28;19919;-84
2022/09/12 02:45:46;;;;;;;;;;;13.30;99.90;;;;;;4978766;28;19910;-86
2022/09/12 02:48:20;;;;;;;;;;;13.30;99.90;;;;;;4963535;28;19953;-85
2022/09/12 02:50:46;;;;;;;;;;;13.40;99.90;;;;;;4955588;28;19910;-81
2022/09/12 02:53:11;;;;;;;;;;;13.30;99.90;;;;;;4973990;28;19982;-83
2022/09/12 02:55:38;;;;;;;;;;;13.30;99.90;;;;;;4980062;28;19984;-82
2022/09/12 02:58:06;;;;;;;;;;;13.40;99.90;;;;;;4958957;28;19985;-82
2022/09/12 03:00:34;;;;;;;;;;;13.40;99.90;;;;;;4980807;23;19926;-81
2022/09/12 03:03:15;;;;;;;;;;;13.30;99.90;;;;;;4990288;28;19921;-80
2022/09/12 03:05:50;;;;;;;;;;;13.30;99.90;;;;;;4993784;28;19917;-79
2022/09/12 03:08:25;;;;;;;;;;;13.40;99.90;;;;;;5002008;28;19944;-82
2022/09/12 03:11:08;;;;;;;;;;;13.30;99.90;;;;;;5009414;28;19902;-85
2022/09/12 03:13:41;;;;;;;;;;;13.30;99.90;;;;;;5010308;28;19902;-86
2022/09/12 03:16:30;;;;;;;;;;;13.30;99.90;;;;;;4989969;28;19929;-82
2022/09/12 03:19:08;;;;;;;;;;;13.30;99.90;;;;;;4970788;28;20450;-81
2022/09/12 03:21:48;;;;;;;;;;;13.30;99.90;;;;;;4987606;28;19918;-82
2022/09/12 03:24:16;;;;;;;;;;;13.30;99.90;;;;;;4988449;28;19909;-79
2022/09/12 03:26:47;;;;;;;;;;;13.20;99.90;;;;;;4989196;28;19924;-82
2022/09/12 03:29:13;;;;;;;;;;;13.20;99.90;;;;;;4975934;28;19914;-82
2022/09/12 03:31:53;;;;;;;;;;;13.20;99.90;;;;;;4972758;28;19913;-79
2022/09/12 03:34:19;;;;;;;;;;;13.20;99.90;;;;;;4978681;28;19914;-83
2022/09/12 03:36:45;;;;;;;;;;;13.20;99.90;;;;;;4976365;28;19981;-81
2022/09/12 03:39:10;;;;;;;;;;;13.20;99.90;;;;;;4976055;28;19952;-81
2022/09/12 03:41:36;;;;;;;;;;;13.20;99.90;;;;;;4981506;28;19918;-80
2022/09/12 03:44:02;;;;;;;;;;;13.10;99.90;;;;;;4997736;28;20349;-82
2022/09/12 03:46:27;;;;;;;;;;;13.20;99.90;;;;;;4980344;28;20004;-80
2022/09/12 03:48:53;;;;;;;;;;;13.20;99.90;;;;;;4975796;28;20430;-81
2022/09/12 03:51:18;;;;;;;;;;;13.10;99.90;;;;;;4976997;28;19957;-81
2022/09/12 03:53:44;;;;;;;;;;;13.20;99.90;;;;;;4978831;28;19910;-80
2022/09/12 03:56:10;;;;;;;;;;;13.10;99.90;;;;;;4979385;28;19957;-79
2022/09/12 03:58:35;;;;;;;;;;;13.10;99.90;;;;;;4968473;28;19960;-83
2022/09/12 04:01:12;;;;;;;;;;;13.10;99.90;;;;;;4979972;28;19917;-80
2022/09/12 04:03:38;;;;;;;;;;;13.10;99.90;;;;;;4993616;28;19936;-79
2022/09/12 04:06:04;;;;;;;;;;;13.10;99.90;;;;;;4991943;28;20000;-81
2022/09/12 04:08:30;;;;;;;;;;;13.10;99.90;;;;;;4989637;28;20426;-83
2022/09/12 04:11:01;;;;;;;;;;;13.00;99.90;;;;;;4967890;28;20302;-82
2022/09/12 04:13:26;;;;;;;;;;;13.00;99.90;;;;;;4987650;28;19925;-83
2022/09/12 04:15:56;;;;;;;;;;;13.00;99.90;;;;;;4974987;28;19916;-82
2022/09/12 04:18:21;;;;;;;;;;;13.00;99.90;;;;;;4993805;28;19914;-84
2022/09/12 04:20:46;;;;;;;;;;;13.00;99.90;;;;;;4972283;28;19964;-82
2022/09/12 04:23:12;;;;;;;;;;;13.00;99.90;;;;;;4990544;28;20029;-78
2022/09/12 04:25:37;;;;;;;;;;;13.00;99.90;;;;;;4998794;28;19909;-81
2022/09/12 04:28:03;;;;;;;;;;;12.70;99.90;;;;;;4999348;28;19920;-84
2022/09/12 04:30:28;;;;;;;;;;;12.90;99.90;;;;;;4981412;28;19929;-81
2022/09/12 04:32:54;;;;;;;;;;;12.90;99.90;;;;;;4999225;28;19981;-81
2022/09/12 04:35:19;;;;;;;;;;;12.90;99.90;;;;;;5000708;28;19918;-80
2022/09/12 04:37:45;;;;;;;;;;;12.90;99.90;;;;;;4992430;28;19916;-81
2022/09/12 04:40:10;;;;;;;;;;;12.90;99.90;;;;;;4975586;28;19913;-84
2022/09/12 04:42:36;;;;;;;;;;;12.80;99.90;;;;;;4980262;28;19941;-83
2022/09/12 04:45:02;;;;;;;;;;;10.60;99.90;;;;;;4979396;28;19913;-85
2022/09/12 04:47:28;;;;;;;;;;;12.80;99.90;;;;;;5004409;28;19916;-82
2022/09/12 04:49:53;;;;;;;;;;;12.90;99.90;;;;;;5001744;28;20395;-82
2022/09/12 04:52:18;;;;;;;;;;;12.80;99.90;;;;;;4996000;28;19917;-82
2022/09/12 04:54:44;;;;;;;;;;;12.80;99.90;;;;;;4983252;28;19915;-82
2022/09/12 04:57:10;;;;;;;;;;;12.90;99.90;;;;;;4998959;28;19953;-82
2022/09/12 04:59:37;;;;;;;;;;;12.90;99.90;;;;;;4977275;28;19953;-82
2022/09/12 05:02:02;;;;;;;;;;;13.00;99.90;;;;;;4983156;28;19968;-83
2022/09/12 05:04:28;;;;;;;;;;;13.00;99.90;;;;;;4986598;28;19909;-83
2022/09/12 05:06:53;;;;;;;;;;;12.90;99.90;;;;;;4992241;28;20361;-85
2022/09/12 05:09:19;;;;;;;;;;;13.00;99.90;;;;;;4984216;28;19914;-82
2022/09/12 05:11:45;;;;;;;;;;;13.00;99.90;;;;;;5000539;28;19917;-84
2022/09/12 05:14:10;;;;;;;;;;;13.00;99.90;;;;;;5005185;28;20434;-84
2022/09/12 05:16:36;;;;;;;;;;;13.00;99.90;;;;;;4973162;28;19957;-83
2022/09/12 05:19:02;;;;;;;;;;;13.00;99.90;;;;;;4982673;28;19910;-83
2022/09/12 05:21:27;;;;;;;;;;;13.00;99.90;;;;;;4976183;28;19913;-87
2022/09/12 05:23:53;;;;;;;;;;;13.00;99.90;;;;;;4994194;28;19921;-85
2022/09/12 05:26:20;;;;;;;;;;;13.00;99.90;;;;;;4981945;28;20012;-84
2022/09/12 05:28:46;;;;;;;;;;;12.80;99.90;;;;;;4996080;28;19913;-83
2022/09/12 05:31:15;;;;;;;;;;;12.80;99.90;;;;;;5003738;28;20020;-84
2022/09/12 05:33:41;;;;;;;;;;;12.80;99.90;;;;;;4995926;28;19945;-87
2022/09/12 05:36:08;;;;;;;;;;;12.70;99.90;;;;;;4998322;28;19914;-82
2022/09/12 05:38:34;;;;;;;;;;;12.60;99.90;;;;;;4999101;28;19917;-83
2022/09/12 05:41:03;;;;;;;;;;;12.60;99.90;;;;;;4985742;28;20653;-83
2022/09/12 05:43:29;;;;;;;;;;;12.70;99.90;;;;;;5002901;28;19956;-86
2022/09/12 05:46:01;;;;;;;;;;;12.60;99.90;;;;;;4992304;28;19906;-85
2022/09/12 05:48:27;;;;;;;;;;;12.80;99.90;;;;;;5007981;28;19928;-87
2022/09/12 05:51:00;;;;;;;;;;;12.80;99.90;;;;;;4993062;28;19928;-84
2022/09/12 05:53:27;;;;;;;;;;;12.90;99.90;;;;;;5014742;28;19948;-87
2022/09/12 05:56:08;;;;;;;;;;;13.00;99.90;;;;;;4999924;28;19921;-85
2022/09/12 05:58:35;;;;;;;;;;;13.10;99.90;;;;;;5010072;28;19918;-88
2022/09/12 06:01:04;;;;;;;;;;;13.10;99.90;;;;;;5008167;28;19977;-85
2022/09/12 06:03:30;;;;;;;;;;;13.10;99.90;;;;;;4998964;28;19914;-84
2022/09/12 06:05:55;;;;;;;;;;;13.20;99.90;;;;;;4992515;28;19914;-86
2022/09/12 06:08:21;;;;;;;;;;;13.30;99.90;;;;;;4996673;28;19909;-85
2022/09/12 06:10:48;;;;;;;;;;;13.30;99.90;;;;;;4981211;28;19913;-84
2022/09/12 06:13:13;;;;;;;;;;;13.40;99.90;;;;;;5002084;28;20290;-83
2022/09/12 06:15:39;;;;;;;;;;;13.50;99.90;;;;;;4979958;28;19992;-85
2022/09/12 06:18:04;;;;;;;;;;;13.50;99.90;;;;;;5004404;28;19945;-84
2022/09/12 06:20:30;;;;;;;;;;;13.60;99.90;;;;;;4981289;28;19949;-84
2022/09/12 06:22:55;;;;;;;;;;;13.60;99.90;;;;;;5001109;28;19921;-85
2022/09/12 06:25:21;;;;;;;;;;;13.70;99.90;;;;;;4984466;28;19906;-81
2022/09/12 06:27:47;;;;;;;;;;;13.80;99.90;;;;;;4999913;28;20295;-80
2022/09/12 06:30:12;;;;;;;;;;;13.80;99.90;;;;;;4984384;28;20044;-83
2022/09/12 06:32:38;;;;;;;;;;;13.80;99.90;;;;;;4999182;28;20000;-82
2022/09/12 06:35:04;;;;;;;;;;;13.90;99.90;;;;;;4997701;28;19910;-84
2022/09/12 06:37:29;;;;;;;;;;;13.90;99.90;;;;;;5005742;28;19909;-82
2022/09/12 06:39:55;;;;;;;;;;;14.10;99.90;;;;;;4988787;28;20008;-81
2022/09/12 06:42:21;;;;;;;;;;;14.30;99.90;;;;;;4986543;28;19953;-80
2022/09/12 06:44:47;;;;;;;;;;;14.20;99.90;;;;;;4980579;28;20395;-79
2022/09/12 06:47:13;;;;;;;;;;;14.40;99.90;;;;;;5004441;28;19905;-82
2022/09/12 06:49:38;;;;;;;;;;;14.50;99.90;;;;;;5008212;28;19937;-83
2022/09/12 06:52:04;;;;;;;;;;;14.70;99.90;;;;;;4979973;28;20386;-82
2022/09/12 06:54:29;;;;;;;;;;;14.50;99.90;;;;;;4988603;28;19909;-80
2022/09/12 06:56:55;;;;;;;;;;;14.90;99.90;;;;;;5003659;28;19913;-80
2022/09/12 06:59:21;;;;;;;;;;;15.00;99.90;;;;;;5006599;28;20402;-82
2022/09/12 07:01:47;;;;;;;;;;;15.10;99.90;;;;;;4986893;28;19917;-81
2022/09/12 07:04:12;;;;;;;;;;;15.10;99.90;;;;;;4997521;28;20582;-83
2022/09/12 07:06:39;;;;;;;;;;;15.20;99.90;;;;;;4984335;28;19983;-79
2022/09/12 07:09:06;;;;;;;;;;;15.40;99.90;;;;;;4991063;28;19914;-79
2022/09/12 07:11:33;;;;;;;;;;;15.50;99.90;;;;;;4996279;28;19910;-79
2022/09/12 07:14:00;;;;;;;;;;;15.60;99.90;;;;;;4995014;28;19932;-82
2022/09/12 07:16:25;;;;;;;;;;;15.50;99.90;;;;;;5004306;28;19953;-83
2022/09/12 07:18:52;;;;;;;;;;;15.90;99.90;;;;;;4988697;28;20005;-82
2022/09/12 07:21:18;;;;;;;;;;;15.80;99.90;;;;;;4984291;28;19937;-82
2022/09/12 07:23:44;;;;;;;;;;;16.00;99.90;;;;;;4996776;28;20864;-81
2022/09/12 07:26:10;;;;;;;;;;;16.20;99.90;;;;;;4985884;28;19921;-80
2022/09/12 07:28:36;;;;;;;;;;;16.40;99.90;;;;;;5006302;28;19955;-82
2022/09/12 07:31:06;;;;;;;;;;;16.40;99.90;;;;;;4996616;28;19953;-82
2022/09/12 07:33:31;;;;;;;;;;;16.50;99.90;;;;;;4997680;28;19925;-79
2022/09/12 07:36:02;;;;;;;;;;;16.60;99.90;;;;;;5004325;28;19909;-80
2022/09/12 07:38:28;;;;;;;;;;;16.80;99.90;;;;;;4987101;28;19928;-81
2022/09/12 07:40:53;;;;;;;;;;;16.70;99.90;;;;;;4999171;28;19925;-79
2022/09/12 07:43:19;;;;;;;;;;;17.00;99.90;;;;;;4988382;28;19910;-80
2022/09/12 07:45:44;;;;;;;;;;;17.10;99.90;;;;;;4985236;28;19921;-80
2022/09/12 07:48:10;;;;;;;;;;;17.30;99.90;;;;;;4991140;28;19971;-83
2022/09/12 07:50:36;;;;;;;;;;;17.40;99.90;;;;;;4980881;28;19914;-81
2022/09/12 07:53:02;;;;;;;;;;;17.40;99.90;;;;;;4981149;28;19906;-81
2022/09/12 07:55:28;;;;;;;;;;;17.60;99.90;;;;;;4982626;28;19906;-83
2022/09/12 07:57:54;;;;;;;;;;;17.70;99.90;;;;;;4996505;28;19914;-81
2022/09/12 08:00:20;;;;;;;;;;;18.00;99.90;;;;;;5011288;28;19977;-81
2022/09/12 08:02:49;;;;;;;;;;;18.00;99.90;;;;;;5001813;28;20341;-83
2022/09/12 08:05:15;;;;;;;;;;;18.30;99.90;;;;;;4993687;28;19917;-84
2022/09/12 08:07:40;;;;;;;;;;;18.40;99.90;;;;;;5008874;28;19909;-82
2022/09/12 08:10:06;;;;;;;;;;;18.50;99.90;;;;;;5006296;28;20024;-84
2022/09/12 08:12:33;;;;;;;;;;;18.50;99.90;;;;;;4985415;28;19913;-81
2022/09/12 08:14:59;;;;;;;;;;;18.40;99.90;;;;;;5007423;28;19906;-82
2022/09/12 08:17:25;;;;;;;;;;;18.60;99.90;;;;;;4998635;28;19964;-81
2022/09/12 08:19:51;;;;;;;;;;;18.70;99.90;;;;;;4998585;28;19909;-79
2022/09/12 08:22:20;;;;;;;;;;;18.80;99.90;;;;;;4990164;28;19921;-80
2022/09/12 08:24:46;;;;;;;;;;;18.90;99.90;;;;;;4988362;28;19913;-80
2022/09/12 08:27:11;;;;;;;;;;;19.10;99.90;;;;;;5005666;28;19972;-81
2022/09/12 08:29:37;;;;;;;;;;;19.20;99.90;;;;;;5000814;28;19913;-83
2022/09/12 08:32:02;;;;;;;;;;;19.30;99.90;;;;;;5001934;28;19973;-81
2022/09/12 08:34:28;;;;;;;;;;;19.30;99.90;;;;;;4996026;28;20414;-80
2022/09/12 08:36:54;;;;;;;;;;;19.40;99.90;;;;;;5002355;28;20365;-80
2022/09/12 08:39:20;;;;;;;;;;;19.50;99.90;;;;;;4995479;28;19909;-79
2022/09/12 08:41:47;;;;;;;;;;;19.70;99.90;;;;;;5003435;28;19914;-78
2022/09/12 08:44:28;;;;;;;;;;;19.60;99.90;;;;;;5002700;28;19910;-81
2022/09/12 08:47:07;;;;;;;;;;;19.70;99.90;;;;;;5003010;28;20439;-82
2022/09/12 08:49:52;;;;;;;;;;;19.80;99.90;;;;;;4992753;28;19910;-82
2022/09/12 08:52:17;;;;;;;;;;;19.90;99.90;;;;;;4998633;28;19917;-81
2022/09/12 08:54:44;;;;;;;;;;;19.90;99.90;;;;;;5006353;28;19913;-81
2022/09/12 08:57:10;;;;;;;;;;;20.10;99.90;;;;;;4997342;28;20406;-79
2022/09/12 08:59:38;;;;;;;;;;;20.20;99.90;;;;;;4983574;28;19913;-82
2022/09/12 09:02:15;;;;;;;;;;;20.30;99.90;;;;;;4980933;28;19932;-79
2022/09/12 09:04:40;;;;;;;;;;;20.50;99.90;;;;;;5001598;28;19909;-82
2022/09/12 09:07:24;;;;;;;;;;;20.50;99.90;;;;;;5009769;28;19937;-83
2022/09/12 09:10:09;;;;;;;;;;;20.80;99.90;;;;;;5005236;28;20383;-82
2022/09/12 09:12:54;;;;;;;;;;;20.90;99.90;;;;;;4988890;28;19909;-83
2022/09/12 09:15:26;;;;;;;;;;;20.90;99.90;;;;;;5013597;28;19902;-83
2022/09/12 09:18:04;;;;;;;;;;;21.00;99.90;;;;;;5023619;28;19905;-86
2022/09/12 09:20:50;;;;;;;;;;;21.10;99.90;;;;;;4999484;28;19910;-83
2022/09/12 09:23:21;;;;;;;;;;;21.20;99.90;;;;;;5012787;28;19906;-83
2022/09/12 09:25:46;;;;;;;;;;;21.30;99.90;;;;;;5005681;28;19985;-79
2022/09/12 09:28:24;;;;;;;;;;;21.40;99.90;;;;;;5016553;28;19932;-81
2022/09/12 09:30:49;;;;;;;;;;;21.60;99.90;;;;;;4999201;28;19909;-80
2022/09/12 09:33:22;;;;;;;;;;;21.80;99.90;;;;;;5007571;28;19910;-81
2022/09/12 09:36:08;;;;;;;;;;;21.90;99.90;;;;;;5003797;28;19916;-81
2022/09/12 09:38:41;;;;;;;;;;;22.10;99.90;;;;;;4981372;28;19925;-82
2022/09/12 09:41:18;;;;;;;;;;;22.20;99.90;;;;;;5001790;28;20006;-81
2022/09/12 09:43:44;;;;;;;;;;;22.10;99.90;;;;;;4999836;28;19967;-80
2022/09/12 09:46:10;;;;;;;;;;;22.30;99.90;;;;;;4985815;28;19968;-81
2022/09/12 09:48:39;;;;;;;;;;;22.40;99.90;;;;;;4996896;28;19928;-81
2022/09/12 09:51:06;;;;;;;;;;;22.50;99.90;;;;;;4991639;28;20363;-80
2022/09/12 09:53:40;;;;;;;;;;;22.50;99.90;;;;;;5015280;28;19910;-83
2022/09/12 09:56:09;;;;;;;;;;;22.80;99.90;;;;;;4987310;28;19906;-83
2022/09/12 09:58:35;;;;;;;;;;;22.90;99.90;;;;;;5004551;28;19965;-81
2022/09/12 10:01:02;;;;;;;;;;;22.80;99.90;;;;;;5009374;28;19969;-82
2022/09/12 10:03:32;;;;;;;;;;;22.90;99.90;;;;;;4987560;28;19909;-82
2022/09/12 10:06:04;;;;;;;;;;;23.00;99.90;;;;;;5012210;28;19909;-81
2022/09/12 10:08:31;;;;;;;;;;;23.10;99.90;;;;;;5006089;28;19909;-80
2022/09/12 10:11:00;;;;;;;;;;;23.20;99.90;;;;;;5005307;28;19940;-79
2022/09/12 10:13:29;;;;;;;;;;;23.20;99.90;;;;;;4986513;28;19952;-81
2022/09/12 10:15:57;;;;;;;;;;;23.10;99.90;;;;;;5009463;28;19913;-82
2022/09/12 10:18:32;;;;;;;;;;;23.30;99.90;;;;;;5006108;28;19937;-81
2022/09/12 10:20:58;;;;;;;;;;;23.30;99.70;;;;;;4994144;28;19917;-81
2022/09/12 10:23:28;;;;;;;;;;;23.30;99.80;;;;;;4991395;28;19990;-81
2022/09/12 10:25:55;;;;;;;;;;;23.30;99.70;;;;;;5005466;28;19938;-80
2022/09/12 10:28:30;;;;;;;;;;;23.20;99.80;;;;;;4986639;28;19909;-83
2022/09/12 10:30:56;;;;;;;;;;;23.20;99.70;;;;;;5003561;28;19996;-82
2022/09/12 10:33:23;;;;;;;;;;;23.40;99.10;;;;;;5009959;28;19905;-82
2022/09/12 10:35:48;;;;;;;;;;;23.50;99.00;;;;;;4996488;28;19928;-81
2022/09/12 10:38:26;;;;;;;;;;;23.50;99.00;;;;;;4998773;28;19909;-80
2022/09/12 10:41:02;;;;;;;;;;;23.70;98.20;;;;;;5012428;28;19910;-82
2022/09/12 10:43:36;;;;;;;;;;;23.80;98.00;;;;;;4995429;28;19901;-82
2022/09/12 10:46:14;;;;;;;;;;;23.90;97.80;;;;;;5004233;28;19909;-79
2022/09/12 10:48:40;;;;;;;;;;;23.90;97.90;;;;;;4996006;28;19977;-83
2022/09/12 10:51:13;;;;;;;;;;;23.80;97.50;;;;;;4987322;28;20421;-80
2022/09/12 10:53:40;;;;;;;;;;;23.90;97.50;;;;;;4996717;28;19910;-82
2022/09/12 10:56:08;;;;;;;;;;;24.10;97.60;;;;;;4996333;28;19921;-81
2022/09/12 10:58:33;;;;;;;;;;;24.30;96.90;;;;;;5001051;28;20401;-82
2022/09/12 11:01:08;;;;;;;;;;;24.20;96.60;;;;;;4991341;28;19914;-81
2022/09/12 11:03:44;;;;;;;;;;;24.30;96.50;;;;;;5011988;28;19947;-81
2022/09/12 11:06:14;;;;;;;;;;;24.40;96.30;;;;;;5005767;28;19906;-82
2022/09/12 11:08:42;;;;;;;;;;;24.40;95.90;;;;;;4993866;28;19997;-79
2022/09/12 11:11:23;;;;;;;;;;;24.40;95.90;;;;;;4994862;28;20295;-81
2022/09/12 11:13:55;;;;;;;;;;;24.50;95.80;;;;;;5007083;28;20003;-83
2022/09/12 11:16:33;;;;;;;;;;;24.50;95.80;;;;;;5006021;28;19910;-81
2022/09/12 11:19:02;;;;;;;;;;;24.70;94.30;;;;;;4986782;28;19912;-81
2022/09/12 11:21:47;;;;;;;;;;;24.80;94.60;;;;;;4992357;28;19949;-80
2022/09/12 11:24:18;;;;;;;;;;;24.90;94.50;;;;;;5008341;28;19909;-81
2022/09/12 11:27:02;;;;;;;;;;;24.90;93.80;;;;;;4984732;28;19910;-80
2022/09/12 11:29:44;;;;;;;;;;;25.10;94.10;;;;;;5007412;28;19978;-80
2022/09/12 11:32:29;;;;;;;;;;;25.10;93.60;;;;;;5003640;28;19965;-80
2022/09/12 11:35:13;;;;;;;;;;;25.10;93.50;;;;;;5002093;28;20689;-81
2022/09/12 11:37:54;;;;;;;;;;;25.10;91.70;;;;;;4988125;28;19909;-82
2022/09/12 11:40:20;;;;;;;;;;;25.10;92.00;;;;;;4993455;28;19906;-82
2022/09/12 11:42:46;;;;;;;;;;;25.20;91.90;;;;;;5007280;28;19917;-80
2022/09/12 11:45:14;;;;;;;;;;;25.10;91.70;;;;;;4988344;28;19894;-80
2022/09/12 11:47:40;;;;;;;;;;;25.30;91.70;;;;;;5003447;28;19914;-80
2022/09/12 11:50:14;;;;;;;;;;;25.20;92.00;;;;;;4980184;28;19909;-79
2022/09/12 11:52:40;;;;;;;;;;;25.10;92.00;;;;;;4978873;28;19909;-79
2022/09/12 11:55:05;;;;;;;;;;;25.00;91.40;;;;;;4981611;28;19912;-80
2022/09/12 11:57:42;;;;;;;;;;;25.20;91.40;;;;;;5001890;28;19961;-79
2022/09/12 12:00:14;;;;;;;;;;;25.30;90.90;;;;;;4995804;28;20377;-80
2022/09/12 12:02:49;;;;;;;;;;;25.30;90.40;;;;;;4996986;28;20436;-80
2022/09/12 12:05:23;;;;;;;;;;;25.40;90.20;;;;;;5002046;28;19913;-78
2022/09/12 12:07:56;;;;;;;;;;;25.30;90.30;;;;;;4984798;28;19941;-80
2022/09/12 12:10:23;;;;;;;;;;;25.40;90.50;;;;;;4997750;28;20255;-78
2022/09/12 12:12:49;;;;;;;;;;;25.40;90.50;;;;;;4998902;28;20333;-81
2022/09/12 12:15:15;;;;;;;;;;;25.40;89.70;;;;;;5001322;28;19986;-80
2022/09/12 12:17:41;;;;;;;;;;;25.50;89.30;;;;;;5002992;28;19914;-78
2022/09/12 12:20:15;;;;;;;;;;;25.70;87.80;;;;;;5005390;28;19913;-82
2022/09/12 12:22:50;;;;;;;;;;;25.70;87.60;;;;;;4977934;28;19913;-81
2022/09/12 12:25:16;;;;;;;;;;;25.90;88.00;;;;;;4980094;28;20370;-80
2022/09/12 12:27:44;;;;;;;;;;;25.90;88.00;;;;;;4985064;28;19932;-81
2022/09/12 12:30:28;;;;;;;;;;;26.10;84.60;;;;;;4980800;28;19914;-81
2022/09/12 12:33:09;;;;;;;;;;;26.00;83.60;;;;;;4982131;28;19916;-80
2022/09/12 12:35:38;;;;;;;;;;;26.00;84.70;;;;;;4998091;28;19928;-81
2022/09/12 12:38:23;;;;;;;;;;;25.90;83.70;;;;;;4991013;28;19913;-81
2022/09/12 12:40:49;;;;;;;;;;;26.00;84.00;;;;;;4991390;28;19914;-81
2022/09/12 12:43:30;;;;;;;;;;;26.10;80.70;;;;;;4998923;28;19910;-80
2022/09/12 12:46:06;;;;;;;;;;;26.10;80.80;;;;;;4981423;28;19920;-81
2022/09/12 12:48:34;;;;;;;;;;;26.40;82.20;;;;;;4995457;28;20295;-80
2022/09/12 12:51:20;;;;;;;;;;;26.40;82.20;;;;;;4983500;28;19957;-79
2022/09/12 12:53:46;;;;;;;;;;;26.50;81.80;;;;;;5000330;28;19973;-81
2022/09/12 12:56:25;;;;;;;;;;;26.60;80.50;;;;;;5008936;28;19937;-81
2022/09/12 12:58:56;;;;;;;;;;;26.60;81.30;;;;;;5000993;28;20004;-79
2022/09/12 13:01:22;;;;;;;;;;;26.50;81.00;;;;;;5000646;28;19981;-80
2022/09/12 13:03:53;;;;;;;;;;;26.60;80.20;;;;;;5000711;28;19948;-81
2022/09/12 13:06:28;;;;;;;;;;;26.60;79.70;;;;;;5004176;28;20019;-81
2022/09/12 13:08:58;;;;;;;;;;;26.60;78.60;;;;;;5004233;28;19910;-81
2022/09/12 13:11:35;;;;;;;;;;;26.60;78.30;;;;;;5015441;28;19905;-81
2022/09/12 13:14:08;;;;;;;;;;;26.60;78.70;;;;;;4993441;28;19910;-80
2022/09/12 13:16:37;;;;;;;;;;;26.50;78.70;;;;;;4986273;28;20016;-79
2022/09/12 13:19:04;;;;;;;;;;;;;;;;;;4977790;28;19917;-81
2022/09/12 13:21:29;;;;;;;;;;;26.60;76.90;;;;;;4983919;28;20033;-81
2022/09/12 13:24:03;;;;;;;;;;;26.70;75.80;;;;;;4985219;28;19949;-81
2022/09/12 13:26:32;;;;;;;;;;;26.70;75.50;;;;;;5004972;28;19977;-80
2022/09/12 13:29:08;;;;;;;;;;;26.70;74.80;;;;;;4983263;28;19921;-81
2022/09/12 13:31:33;;;;;;;;;;;26.60;75.40;;;;;;4980930;28;19969;-80
2022/09/12 13:34:01;;;;;;;;;;;26.50;74.50;;;;;;5001564;28;19960;-81
2022/09/12 13:36:26;;;;;;;;;;;26.50;75.00;;;;;;5002025;28;19905;-80
2022/09/12 13:39:10;;;;;;;;;;;26.40;75.10;;;;;;4987382;28;19925;-80
2022/09/12 13:41:47;;;;;;;;;;;26.30;74.10;;;;;;5004738;28;19917;-81
2022/09/12 13:44:15;;;;;;;;;;;26.30;75.00;;;;;;4993731;28;19916;-79
2022/09/12 13:46:41;;;;;;;;;;;26.50;73.70;;;;;;4985965;28;20005;-80
2022/09/12 13:49:25;;;;;;;;;;;26.40;74.50;;;;;;4986600;28;20391;-81
2022/09/12 13:51:58;;;;;;;;;;;26.40;74.30;;;;;;4992805;28;19913;-82
2022/09/12 13:54:23;;;;;;;;;;;26.40;74.10;;;;;;4984413;28;20064;-80
2022/09/12 13:56:49;;;;;;;;;;;26.40;75.50;;;;;;4977892;28;19957;-80
2022/09/12 13:59:14;;;;;;;;;;;26.30;75.30;;;;;;4954795;28;20012;-81
2022/09/12 14:01:42;;;;;;;;;;;26.20;75.80;;;;;;4986621;28;19937;-78
2022/09/12 14:06:59;;;;;;;;;;;26.30;74.80;;;;;;5005218;28;19912;-79
2022/09/12 14:09:27;;;;;;;;;;;26.30;75.60;;;;;;4993545;28;19974;-82
2022/09/12 14:11:53;;;;;;;;;;;26.20;73.60;;;;;;4997911;28;20372;-82
2022/09/12 14:14:41;;;;;;;;;;;26.10;72.60;;;;;;4986840;28;19924;-83
2022/09/12 14:17:25;;;;;;;;;;;26.10;73.30;;;;;;4987011;28;19913;-81
2022/09/12 14:19:51;;;;;;;;;;;26.20;74.20;;;;;;5000431;28;19905;-82
2022/09/12 14:22:17;;;;;;;;;;;26.20;73.20;;;;;;4980551;28;20348;-84
2022/09/12 14:24:49;;;;;;;;;;;26.20;73.50;;;;;;4983763;28;19921;-81
2022/09/12 14:27:19;;;;;;;;;;;26.20;71.90;;;;;;4994397;28;19918;-81
2022/09/12 14:29:45;;;;;;;;;;;26.10;71.30;;;;;;4991429;28;19913;-80
2022/09/12 14:32:19;;;;;;;;;;;26.20;70.70;;;;;;4978074;28;20018;-81
2022/09/12 14:35:02;;;;;;;;;;;26.20;71.50;;;;;;4997272;28;19949;-79
2022/09/12 14:37:28;;;;;;;;;;;26.10;70.30;;;;;;4979028;28;20001;-80